Autryville, North Carolina
Current Conditions -  °F | °C
As of 10:53 PM on Saturday 20 Dec 2014 (Local Time) from KFAY Reporting Station
Haze Haze  
Wind Chill: 38°   Ceiling: 6500
Heat Index: 38°   Visibility: 5mi
Dew Point: 37°   Wind: 3mph
Humidity: 97%   Direction: 20°NNE
Pressure: 30.28"   Gusts: NA
Location:  35°N, 78.64°W
Report Text: KFAY 210353Z AUTO 02003KT 5SM BR OVC065 03/03 A3028 RMK AO2 SLP250 T00330028
Loading
Personal Weather Stations






























Interactive Weather Map New forecast layout! Learn more

10-Day Weather Forecast

Advertisements
Track Severe Weather on mobile